Time,TemperatureF,DewpointF,PressureIn,WindDirection,WindDirectionDegrees,WindSpeedMPH,WindSpeedGustMPH,Humidity,HourlyPrecipIn,Conditions,Clouds,dailyrainin,SoftwareType,DateUTC
2013-01-26 00:00:00,17.3,12.7,30.04,NW,306,0.0,0.0,82,0.00,,,0.03,Wunderground v.1.15,2013-01-26 05:00:00,
2013-01-26 00:01:00,17.3,12.7,30.04,NW,306,0.0,0.0,82,0.00,,,0.03,Wunderground v.1.15,2013-01-26 05:01:00,
2013-01-26 00:02:00,17.3,12.7,30.04,NW,306,0.0,0.0,82,0.00,,,0.00,Wunderground v.1.15,2013-01-26 05:02:00,
2013-01-26 00:04:00,17.3,12.7,30.04,NW,306,0.0,0.0,82,0.00,,,0.00,Wunderground v.1.15,2013-01-26 05:04:00,
2013-01-26 00:10:00,17.2,12.6,30.04,NW,306,0.0,0.0,82,0.00,,,0.00,Wunderground v.1.15,2013-01-26 05:10:00,
2013-01-26 00:16:00,17.1,12.6,30.04,NW,306,0.0,1.0,82,0.00,,,0.00,Wunderground v.1.15,2013-01-26 05:16:00,
2013-01-26 00:21:00,17.0,12.5,30.04,NW,306,0.0,1.0,82,0.00,,,0.00,Wunderground v.1.15,2013-01-26 05:21:00,
2013-01-26 00:27:00,16.9,12.4,30.04,NW,306,1.0,2.0,82,0.00,,,0.00,Wunderground v.1.15,2013-01-26 05:27:00,
2013-01-26 00:32:00,16.5,12.0,30.04,WNW,284,1.0,2.0,82,0.00,,,0.00,Wunderground v.1.15,2013-01-26 05:32:00,
2013-01-26 00:38:00,15.9,11.4,30.04,WNW,284,2.0,3.0,82,0.00,,,0.00,Wunderground v.1.15,2013-01-26 05:38:00,
2013-01-26 00:44:00,15.6,11.1,30.04,WNW,285,2.0,3.0,82,0.00,,,0.00,Wunderground v.1.15,2013-01-26 05:44:00,
2013-01-26 00:49:00,15.7,11.5,30.04,WNW,285,1.0,3.0,83,0.00,,,0.00,Wunderground v.1.15,2013-01-26 05:49:00,
2013-01-26 00:55:00,15.9,11.9,30.05,WNW,285,0.0,1.0,84,0.00,,,0.00,Wunderground v.1.15,2013-01-26 05:55:00,
2013-01-26 01:00:00,16.1,12.1,30.05,WNW,285,0.0,0.0,84,0.00,,,0.00,Wunderground v.1.15,2013-01-26 06:00:00,
2013-01-26 01:06:00,16.0,11.7,30.04,WNW,285,0.0,0.0,83,0.00,,,0.00,Wunderground v.1.15,2013-01-26 06:06:00,
2013-01-26 01:11:00,15.9,11.4,30.05,WNW,285,0.0,0.0,82,0.00,,,0.00,Wunderground v.1.15,2013-01-26 06:11:00,
2013-01-26 01:17:00,15.7,11.2,30.04,WNW,285,0.0,0.0,82,0.00,,,0.00,Wunderground v.1.15,2013-01-26 06:17:00,
2013-01-26 01:24:00,15.6,11.1,30.04,WNW,285,0.0,0.0,82,0.00,,,0.00,Wunderground v.1.15,2013-01-26 06:24:00,
2013-01-26 01:29:00,15.5,11.0,30.04,WNW,285,0.0,0.0,82,0.00,,,0.00,Wunderground v.1.15,2013-01-26 06:29:00,
2013-01-26 01:34:00,15.3,10.8,30.04,WNW,285,0.0,0.0,82,0.00,,,0.00,Wunderground v.1.15,2013-01-26 06:34:00,
2013-01-26 01:40:00,15.1,10.6,30.04,WNW,285,0.0,0.0,82,0.00,,,0.00,Wunderground v.1.15,2013-01-26 06:40:00,
2013-01-26 01:45:00,14.8,10.3,30.04,WNW,285,1.0,1.0,82,0.00,,,0.00,Wunderground v.1.15,2013-01-26 06:45:00,
2013-01-26 01:51:00,14.4,9.9,30.04,WNW,285,2.0,2.0,82,0.00,,,0.00,Wunderground v.1.15,2013-01-26 06:51:00,
2013-01-26 01:57:00,14.2,10.0,30.04,WNW,285,1.0,2.0,83,0.00,,,0.00,Wunderground v.1.15,2013-01-26 06:57:00,
2013-01-26 02:02:00,14.2,10.0,30.04,WNW,285,0.0,0.0,83,0.00,,,0.00,Wunderground v.1.15,2013-01-26 07:02:00,
2013-01-26 02:08:00,14.2,10.0,30.04,WNW,285,0.0,0.0,83,0.00,,,0.00,Wunderground v.1.15,2013-01-26 07:08:00,
2013-01-26 02:14:00,14.2,10.0,30.04,WNW,285,0.0,0.0,83,0.00,,,0.00,Wunderground v.1.15,2013-01-26 07:14:00,
2013-01-26 02:20:00,14.2,9.7,30.04,WNW,285,0.0,0.0,82,0.00,,,0.00,Wunderground v.1.15,2013-01-26 07:20:00,
2013-01-26 02:25:00,14.0,9.5,30.04,WNW,285,0.0,1.0,82,0.00,,,0.00,Wunderground v.1.15,2013-01-26 07:25:00,
2013-01-26 02:31:00,13.9,9.7,30.04,WNW,300,0.0,0.0,83,0.00,,,0.00,Wunderground v.1.15,2013-01-26 07:31:00,
2013-01-26 02:37:00,13.9,9.7,30.03,WNW,300,0.0,1.0,83,0.00,,,0.00,Wunderground v.1.15,2013-01-26 07:37:00,
2013-01-26 02:43:00,13.8,9.3,30.04,WNW,300,0.0,0.0,82,0.00,,,0.00,Wunderground v.1.15,2013-01-26 07:43:00,
2013-01-26 02:49:00,13.7,9.2,30.04,WNW,300,0.0,1.0,82,0.00,,,0.00,Wunderground v.1.15,2013-01-26 07:49:00,
2013-01-26 02:54:00,13.6,9.1,30.04,WNW,300,0.0,1.0,82,0.00,,,0.00,Wunderground v.1.15,2013-01-26 07:54:00,
2013-01-26 03:00:00,13.6,9.1,30.04,WNW,300,0.0,0.0,82,0.00,,,0.00,Wunderground v.1.15,2013-01-26 08:00:00,
2013-01-26 03:06:00,13.6,8.9,30.03,WNW,300,0.0,0.0,81,0.00,,,0.00,Wunderground v.1.15,2013-01-26 08:06:00,
2013-01-26 03:11:00,13.4,8.7,30.03,WNW,300,0.0,0.0,81,0.00,,,0.00,Wunderground v.1.15,2013-01-26 08:11:00,
2013-01-26 03:17:00,13.4,8.7,30.03,NW,306,0.0,0.0,81,0.00,,,0.00,Wunderground v.1.15,2013-01-26 08:17:00,
2013-01-26 03:23:00,13.2,8.5,30.03,NW,306,0.0,0.0,81,0.00,,,0.00,Wunderground v.1.15,2013-01-26 08:23:00,
2013-01-26 03:29:00,13.1,8.4,30.03,NW,306,0.0,0.0,81,0.00,,,0.00,Wunderground v.1.15,2013-01-26 08:29:00,
2013-01-26 03:34:00,13.1,8.6,30.03,NW,306,0.0,0.0,82,0.00,,,0.00,Wunderground v.1.15,2013-01-26 08:34:00,
2013-01-26 03:39:00,13.1,8.6,30.03,NW,306,0.0,0.0,82,0.00,,,0.00,Wunderground v.1.15,2013-01-26 08:39:00,
2013-01-26 03:45:00,13.1,8.6,30.03,NW,306,0.0,1.0,82,0.00,,,0.00,Wunderground v.1.15,2013-01-26 08:45:00,
2013-01-26 03:50:00,13.2,8.7,30.03,NW,306,1.0,1.0,82,0.00,,,0.00,Wunderground v.1.15,2013-01-26 08:50:00,
2013-01-26 03:56:00,13.1,8.6,30.04,NW,304,1.0,3.0,82,0.00,,,0.00,Wunderground v.1.15,2013-01-26 08:56:00,
2013-01-26 04:01:00,12.9,8.2,30.04,NW,304,0.0,1.0,81,0.00,,,0.00,Wunderground v.1.15,2013-01-26 09:01:00,
2013-01-26 04:07:00,12.7,8.2,30.04,NW,304,0.0,1.0,82,0.00,,,0.00,Wunderground v.1.15,2013-01-26 09:07:00,
2013-01-26 04:13:00,12.5,8.0,30.04,WNW,300,1.0,2.0,82,0.00,,,0.00,Wunderground v.1.15,2013-01-26 09:13:00,
2013-01-26 04:19:00,12.4,8.0,30.04,WNW,294,1.0,3.0,82,0.00,,,0.00,Wunderground v.1.15,2013-01-26 09:19:00,
2013-01-26 04:24:00,12.3,7.9,30.03,WNW,290,1.0,3.0,82,0.00,,,0.00,Wunderground v.1.15,2013-01-26 09:24:00,
2013-01-26 04:30:00,12.3,8.4,30.03,West,280,1.0,1.0,84,0.00,,,0.00,Wunderground v.1.15,2013-01-26 09:30:00,
2013-01-26 04:36:00,12.5,8.6,30.03,WNW,284,1.0,3.0,84,0.00,,,0.00,Wunderground v.1.15,2013-01-26 09:36:00,
2013-01-26 04:41:00,12.5,8.6,30.04,WNW,287,1.0,2.0,84,0.00,,,0.00,Wunderground v.1.15,2013-01-26 09:41:00,
2013-01-26 04:47:00,12.5,8.6,30.04,NW,317,1.0,3.0,84,0.00,,,0.00,Wunderground v.1.15,2013-01-26 09:47:00,
2013-01-26 04:53:00,12.5,8.6,30.04,NW,317,0.0,1.0,84,0.00,,,0.00,Wunderground v.1.15,2013-01-26 09:53:00,
2013-01-26 04:59:00,12.5,8.8,30.04,WNW,303,1.0,3.0,85,0.00,,,0.00,Wunderground v.1.15,2013-01-26 09:59:00,
2013-01-26 05:04:00,12.7,9.0,30.05,NW,313,1.0,1.0,85,0.00,,,0.00,Wunderground v.1.15,2013-01-26 10:04:00,
2013-01-26 05:10:00,12.8,9.1,30.05,North,350,1.0,3.0,85,0.00,,,0.00,Wunderground v.1.15,2013-01-26 10:10:00,
2013-01-26 05:15:00,12.8,9.1,30.05,NW,323,1.0,3.0,85,0.00,,,0.00,Wunderground v.1.15,2013-01-26 10:15:00,
2013-01-26 05:21:00,12.8,9.1,30.05,NW,317,1.0,2.0,85,0.00,,,0.00,Wunderground v.1.15,2013-01-26 10:21:00,
2013-01-26 05:27:00,12.9,9.2,30.06,NW,309,1.0,2.0,85,0.00,,,0.00,Wunderground v.1.15,2013-01-26 10:27:00,
2013-01-26 05:32:00,12.9,9.0,30.06,NW,309,0.0,0.0,84,0.00,,,0.00,Wunderground v.1.15,2013-01-26 10:32:00,
2013-01-26 05:38:00,12.9,9.0,30.05,NW,309,0.0,0.0,84,0.00,,,0.00,Wunderground v.1.15,2013-01-26 10:38:00,
2013-01-26 05:44:00,12.9,9.0,30.06,NW,309,0.0,0.0,84,0.00,,,0.00,Wunderground v.1.15,2013-01-26 10:44:00,
2013-01-26 05:50:00,12.9,9.0,30.06,WNW,290,0.0,1.0,84,0.00,,,0.00,Wunderground v.1.15,2013-01-26 10:50:00,
2013-01-26 05:55:00,12.8,8.9,30.06,NW,315,1.0,1.0,84,0.00,,,0.00,Wunderground v.1.15,2013-01-26 10:55:00,
2013-01-26 06:00:00,12.7,8.8,30.06,NNE,17,1.0,1.0,84,0.00,,,0.00,Wunderground v.1.15,2013-01-26 11:00:00,
2013-01-26 06:06:00,12.7,8.8,30.07,NW,312,0.0,1.0,84,0.00,,,0.00,Wunderground v.1.15,2013-01-26 11:06:00,
2013-01-26 06:12:00,12.7,8.5,30.07,NW,323,0.0,1.0,83,0.00,,,0.00,Wunderground v.1.15,2013-01-26 11:12:00,
2013-01-26 06:17:00,12.7,8.5,30.07,NW,323,1.0,2.0,83,0.00,,,0.00,Wunderground v.1.15,2013-01-26 11:17:00,
2013-01-26 06:23:00,12.6,8.4,30.08,NW,304,1.0,3.0,83,0.00,,,0.00,Wunderground v.1.15,2013-01-26 11:23:00,
2013-01-26 06:29:00,12.6,8.4,30.08,NW,304,1.0,3.0,83,0.00,,,0.00,Wunderground v.1.15,2013-01-26 11:29:00,
2013-01-26 06:35:00,12.5,8.0,30.08,NW,304,0.0,0.0,82,0.00,,,0.00,Wunderground v.1.15,2013-01-26 11:35:00,
2013-01-26 06:41:00,12.4,8.0,30.08,NW,304,0.0,0.0,82,0.00,,,0.00,Wunderground v.1.15,2013-01-26 11:41:00,
2013-01-26 06:47:00,12.2,7.8,30.09,NW,304,0.0,0.0,82,0.00,,,0.00,Wunderground v.1.15,2013-01-26 11:47:00,
2013-01-26 06:53:00,12.0,7.6,30.08,NW,304,0.0,0.0,82,0.00,,,0.00,Wunderground v.1.15,2013-01-26 11:53:00,
2013-01-26 06:59:00,12.0,7.8,30.08,NW,304,0.0,0.0,83,0.00,,,0.00,Wunderground v.1.15,2013-01-26 11:59:00,
2013-01-26 07:05:00,12.0,7.6,30.09,NW,304,0.0,0.0,82,0.00,,,0.00,Wunderground v.1.15,2013-01-26 12:05:00,
2013-01-26 07:11:00,12.1,7.7,30.09,NW,304,0.0,0.0,82,0.00,,,0.00,Wunderground v.1.15,2013-01-26 12:11:00,
2013-01-26 07:16:00,12.0,7.6,30.09,NW,304,0.0,0.0,82,0.00,,,0.00,Wunderground v.1.15,2013-01-26 12:16:00,
2013-01-26 07:22:00,12.0,7.6,30.09,NW,304,0.0,0.0,82,0.00,,,0.00,Wunderground v.1.15,2013-01-26 12:22:00,
2013-01-26 07:28:00,12.1,7.7,30.10,NW,304,0.0,0.0,82,0.00,,,0.00,Wunderground v.1.15,2013-01-26 12:28:00,
2013-01-26 07:33:00,12.1,7.7,30.10,NW,304,0.0,0.0,82,0.00,,,0.00,Wunderground v.1.15,2013-01-26 12:33:00,
2013-01-26 07:39:00,12.2,7.8,30.11,NW,304,0.0,0.0,82,0.00,,,0.00,Wunderground v.1.15,2013-01-26 12:39:00,
2013-01-26 07:45:00,12.4,8.0,30.11,NW,304,0.0,0.0,82,0.00,,,0.00,Wunderground v.1.15,2013-01-26 12:45:00,
2013-01-26 07:51:00,12.4,8.0,30.11,NW,308,0.0,3.0,82,0.00,,,0.00,Wunderground v.1.15,2013-01-26 12:51:00,
2013-01-26 07:57:00,12.7,8.8,30.11,WNW,292,1.0,6.0,84,0.00,,,0.00,Wunderground v.1.15,2013-01-26 12:57:00,
2013-01-26 08:02:00,13.2,9.3,30.12,WNW,301,2.0,2.0,84,0.00,,,0.00,Wunderground v.1.15,2013-01-26 13:02:00,
2013-01-26 08:08:00,13.8,9.9,30.12,WNW,303,2.0,3.0,84,0.00,,,0.00,Wunderground v.1.15,2013-01-26 13:08:00,
2013-01-26 08:14:00,14.3,10.4,30.12,WNW,298,2.0,5.0,84,0.00,,,0.00,Wunderground v.1.15,2013-01-26 13:14:00,
2013-01-26 08:20:00,14.6,10.4,30.12,NW,321,3.0,3.0,83,0.00,,,0.00,Wunderground v.1.15,2013-01-26 13:20:00,
2013-01-26 08:26:00,14.9,10.4,30.12,WNW,291,3.0,6.0,82,0.00,,,0.00,Wunderground v.1.15,2013-01-26 13:26:00,
2013-01-26 08:32:00,15.1,10.6,30.12,NW,312,3.0,5.0,82,0.00,,,0.00,Wunderground v.1.15,2013-01-26 13:32:00,
2013-01-26 08:37:00,15.3,10.8,30.12,North,11,3.0,5.0,82,0.00,,,0.00,Wunderground v.1.15,2013-01-26 13:37:00,
2013-01-26 08:43:00,15.5,10.7,30.13,WNW,296,2.0,2.0,81,0.00,,,0.00,Wunderground v.1.15,2013-01-26 13:43:00,
2013-01-26 08:48:00,15.7,10.9,30.13,WNW,300,1.0,3.0,81,0.00,,,0.00,Wunderground v.1.15,2013-01-26 13:48:00,
2013-01-26 08:54:00,15.8,10.7,30.13,NW,320,1.0,3.0,80,0.00,,,0.00,Wunderground v.1.15,2013-01-26 13:54:00,
2013-01-26 09:00:00,16.0,10.9,30.13,NNW,342,2.0,3.0,80,0.00,,,0.00,Wunderground v.1.15,2013-01-26 14:00:00,
2013-01-26 09:06:00,16.1,10.7,30.13,North,355,2.0,3.0,79,0.00,,,0.00,Wunderground v.1.15,2013-01-26 14:06:00,
2013-01-26 09:11:00,16.3,10.9,30.13,NW,304,2.0,3.0,79,0.00,,,0.00,Wunderground v.1.15,2013-01-26 14:11:00,
2013-01-26 09:17:00,16.3,10.6,30.13,North,10,3.0,5.0,78,0.00,,,0.00,Wunderground v.1.15,2013-01-26 14:17:00,
2013-01-26 09:22:00,16.5,10.8,30.13,WNW,288,3.0,6.0,78,0.00,,,0.00,Wunderground v.1.15,2013-01-26 14:22:00,
2013-01-26 09:28:00,16.6,10.6,30.13,North,5,3.0,8.0,77,0.00,,,0.00,Wunderground v.1.15,2013-01-26 14:28:00,
2013-01-26 09:34:00,16.7,10.4,30.14,NNW,344,3.0,6.0,76,0.00,,,0.00,Wunderground v.1.15,2013-01-26 14:34:00,
2013-01-26 09:39:00,16.9,10.9,30.14,NE,49,3.0,6.0,77,0.00,,,0.00,Wunderground v.1.15,2013-01-26 14:39:00,
2013-01-26 09:44:00,17.0,10.7,30.14,WNW,302,4.0,9.0,76,0.00,,,0.00,Wunderground v.1.15,2013-01-26 14:44:00,
2013-01-26 09:50:00,17.3,11.0,30.14,WNW,289,4.0,4.0,76,0.00,,,0.00,Wunderground v.1.15,2013-01-26 14:50:00,
2013-01-26 09:55:00,17.6,11.0,30.14,North,350,4.0,4.0,75,0.00,,,0.00,Wunderground v.1.15,2013-01-26 14:55:00,
2013-01-26 10:00:00,17.9,11.3,30.14,ENE,63,3.0,3.0,75,0.00,,,0.00,Wunderground v.1.15,2013-01-26 15:00:00,
2013-01-26 10:06:00,18.3,11.4,30.15,North,5,3.0,8.0,74,0.00,,,0.00,Wunderground v.1.15,2013-01-26 15:06:00,
2013-01-26 10:11:00,18.3,11.1,30.15,North,5,4.0,4.0,73,0.00,,,0.00,Wunderground v.1.15,2013-01-26 15:11:00,
2013-01-26 10:16:00,18.5,11.3,30.15,West,279,3.0,8.0,73,0.00,,,0.00,Wunderground v.1.15,2013-01-26 15:16:00,
2013-01-26 10:22:00,18.8,11.6,30.15,NW,317,5.0,7.0,73,0.00,,,0.00,Wunderground v.1.15,2013-01-26 15:22:00,
2013-01-26 10:28:00,19.0,11.5,30.15,WNW,282,6.0,7.0,72,0.00,,,0.00,Wunderground v.1.15,2013-01-26 15:28:00,
2013-01-26 10:34:00,19.2,11.6,30.15,North,5,5.0,7.0,72,0.00,,,0.00,Wunderground v.1.15,2013-01-26 15:34:00,
2013-01-26 10:40:00,19.3,11.7,30.15,NW,309,4.0,5.0,72,0.00,,,0.00,Wunderground v.1.15,2013-01-26 15:40:00,
2013-01-26 10:45:00,19.3,11.4,30.14,NW,311,4.0,7.0,71,0.00,,,0.00,Wunderground v.1.15,2013-01-26 15:45:00,
2013-01-26 10:51:00,19.4,11.5,30.14,NNW,329,5.0,6.0,71,0.00,,,0.00,Wunderground v.1.15,2013-01-26 15:51:00,
2013-01-26 10:56:00,19.5,11.6,30.14,NNE,18,5.0,7.0,71,0.00,,,0.00,Wunderground v.1.15,2013-01-26 15:56:00,
2013-01-26 11:01:00,19.7,11.5,30.14,West,275,4.0,9.0,70,0.00,,,0.00,Wunderground v.1.15,2013-01-26 16:01:00,
2013-01-26 11:07:00,20.2,12.0,30.14,WSW,237,3.0,9.0,70,0.00,,,0.00,Wunderground v.1.15,2013-01-26 16:07:00,
2013-01-26 11:13:00,20.8,11.9,30.14,WNW,284,4.0,6.0,68,0.00,,,0.00,Wunderground v.1.15,2013-01-26 16:13:00,
2013-01-26 11:19:00,21.2,12.3,30.14,WNW,302,5.0,6.0,68,0.00,,,0.00,Wunderground v.1.15,2013-01-26 16:19:00,
2013-01-26 11:24:00,21.5,12.2,30.14,West,280,5.0,10.0,67,0.00,,,0.00,Wunderground v.1.15,2013-01-26 16:24:00,
2013-01-26 11:30:00,21.7,11.7,30.14,WNW,286,7.0,7.0,65,0.00,,,0.00,Wunderground v.1.15,2013-01-26 16:30:00,
2013-01-26 11:35:00,21.9,11.6,30.13,West,281,8.0,12.0,64,0.00,,,0.00,Wunderground v.1.15,2013-01-26 16:35:00,
2013-01-26 11:41:00,22.0,11.7,30.14,WNW,286,7.0,7.0,64,0.00,,,0.00,Wunderground v.1.15,2013-01-26 16:41:00,
2013-01-26 11:47:00,22.6,12.2,30.14,North,350,4.0,7.0,64,0.00,,,0.00,Wunderground v.1.15,2013-01-26 16:47:00,
2013-01-26 11:52:00,23.0,12.3,30.14,NNW,338,4.0,5.0,63,0.00,,,0.00,Wunderground v.1.15,2013-01-26 16:52:00,
2013-01-26 11:58:00,23.0,12.3,30.14,NNW,344,5.0,5.0,63,0.00,,,0.00,Wunderground v.1.15,2013-01-26 16:58:00,
2013-01-26 12:03:00,23.1,12.0,30.14,NW,312,5.0,7.0,62,0.00,,,0.00,Wunderground v.1.15,2013-01-26 17:03:00,
2013-01-26 12:09:00,23.3,12.2,30.14,North,360,5.0,7.0,62,0.00,,,0.00,Wunderground v.1.15,2013-01-26 17:09:00,
2013-01-26 12:15:00,23.7,12.2,30.13,WNW,290,5.0,11.0,61,0.00,,,0.00,Wunderground v.1.15,2013-01-26 17:15:00,
2013-01-26 12:20:00,23.8,11.2,30.13,NW,306,6.0,6.0,58,0.00,,,0.00,Wunderground v.1.15,2013-01-26 17:20:00,
2013-01-26 12:26:00,23.9,10.9,30.13,WNW,303,6.0,11.0,57,0.00,,,0.00,Wunderground v.1.15,2013-01-26 17:26:00,
2013-01-26 12:32:00,23.6,11.0,30.13,NW,311,7.0,7.0,58,0.00,,,0.00,Wunderground v.1.15,2013-01-26 17:32:00,
2013-01-26 12:37:00,23.6,11.4,30.12,West,281,6.0,10.0,59,0.00,,,0.00,Wunderground v.1.15,2013-01-26 17:37:00,
2013-01-26 12:43:00,24.1,11.8,30.12,WNW,303,5.0,5.0,59,0.00,,,0.00,Wunderground v.1.15,2013-01-26 17:43:00,
2013-01-26 12:49:00,24.6,11.9,30.11,NW,322,4.0,8.0,58,0.00,,,0.00,Wunderground v.1.15,2013-01-26 17:49:00,
2013-01-26 12:55:00,24.5,11.0,30.11,NW,313,5.0,8.0,56,0.00,,,0.00,Wunderground v.1.15,2013-01-26 17:55:00,
2013-01-26 13:00:00,24.2,10.7,30.11,NW,309,6.0,9.0,56,0.00,,,0.00,Wunderground v.1.15,2013-01-26 18:00:00,
2013-01-26 13:06:00,24.3,11.2,30.10,NNE,13,4.0,9.0,57,0.00,,,0.00,Wunderground v.1.15,2013-01-26 18:06:00,
2013-01-26 13:12:00,24.4,10.1,30.11,North,355,3.0,13.0,54,0.00,,,0.00,Wunderground v.1.15,2013-01-26 18:12:00,
2013-01-26 13:17:00,24.1,10.2,30.10,NNW,348,6.0,13.0,55,0.00,,,0.00,Wunderground v.1.15,2013-01-26 18:17:00,
2013-01-26 13:23:00,24.4,10.9,30.10,WNW,297,5.0,6.0,56,0.00,,,0.00,Wunderground v.1.15,2013-01-26 18:23:00,
2013-01-26 13:29:00,24.6,10.7,30.10,WNW,292,4.0,10.0,55,0.00,,,0.00,Wunderground v.1.15,2013-01-26 18:29:00,
2013-01-26 13:34:00,24.8,10.9,30.11,NE,36,4.0,8.0,55,0.00,,,0.00,Wunderground v.1.15,2013-01-26 18:34:00,
2013-01-26 13:39:00,24.8,10.5,30.11,NNW,347,5.0,9.0,54,0.00,,,0.00,Wunderground v.1.15,2013-01-26 18:39:00,
2013-01-26 13:45:00,25.2,11.3,30.12,NE,53,5.0,9.0,55,0.00,,,0.00,Wunderground v.1.15,2013-01-26 18:45:00,
2013-01-26 13:51:00,25.5,11.1,30.11,NNE,12,5.0,5.0,54,0.00,,,0.00,Wunderground v.1.15,2013-01-26 18:51:00,
2013-01-26 13:57:00,25.3,10.5,30.11,WSW,241,5.0,10.0,53,0.00,,,0.00,Wunderground v.1.15,2013-01-26 18:57:00,
2013-01-26 14:02:00,25.4,10.6,30.12,NNW,339,5.0,8.0,53,0.00,,,0.00,Wunderground v.1.15,2013-01-26 19:02:00,
2013-01-26 14:08:00,25.7,11.3,30.11,NNE,20,5.0,8.0,54,0.00,,,0.00,Wunderground v.1.15,2013-01-26 19:08:00,
2013-01-26 14:14:00,25.7,10.5,30.11,North,360,5.0,8.0,52,0.00,,,0.00,Wunderground v.1.15,2013-01-26 19:14:00,
2013-01-26 14:19:00,26.0,11.6,30.11,WNW,300,5.0,8.0,54,0.00,,,0.00,Wunderground v.1.15,2013-01-26 19:19:00,
2013-01-26 14:24:00,26.0,11.6,30.11,WNW,291,4.0,5.0,54,0.00,,,0.00,Wunderground v.1.15,2013-01-26 19:24:00,
2013-01-26 14:30:00,26.0,11.2,30.12,NW,306,4.0,9.0,53,0.00,,,0.00,Wunderground v.1.15,2013-01-26 19:30:00,
2013-01-26 14:36:00,26.2,11.4,30.12,NW,307,6.0,9.0,53,0.00,,,0.00,Wunderground v.1.15,2013-01-26 19:36:00,
2013-01-26 14:41:00,26.2,11.4,30.12,WNW,288,5.0,5.0,53,0.00,,,0.00,Wunderground v.1.15,2013-01-26 19:41:00,
2013-01-26 14:47:00,26.5,11.7,30.12,WNW,292,3.0,5.0,53,0.00,,,0.00,Wunderground v.1.15,2013-01-26 19:47:00,
2013-01-26 14:52:00,26.6,11.3,30.12,WNW,297,4.0,7.0,52,0.00,,,0.00,Wunderground v.1.15,2013-01-26 19:52:00,
2013-01-26 14:58:00,26.5,10.8,30.12,West,277,5.0,9.0,51,0.00,,,0.00,Wunderground v.1.15,2013-01-26 19:58:00,
2013-01-26 15:03:00,26.3,10.6,30.13,WNW,296,5.0,9.0,51,0.00,,,0.00,Wunderground v.1.15,2013-01-26 20:03:00,
2013-01-26 15:09:00,26.3,11.0,30.12,West,267,5.0,9.0,52,0.00,,,0.00,Wunderground v.1.15,2013-01-26 20:09:00,
2013-01-26 15:14:00,26.4,10.7,30.13,NW,305,5.0,8.0,51,0.00,,,0.00,Wunderground v.1.15,2013-01-26 20:14:00,
2013-01-26 15:19:00,26.4,10.3,30.13,NW,321,5.0,8.0,50,0.00,,,0.00,Wunderground v.1.15,2013-01-26 20:19:00,
2013-01-26 15:24:00,26.5,10.8,30.13,WNW,303,5.0,8.0,51,0.00,,,0.00,Wunderground v.1.15,2013-01-26 20:24:00,
2013-01-26 15:30:00,26.6,10.4,30.13,North,350,5.0,5.0,50,0.00,,,0.00,Wunderground v.1.15,2013-01-26 20:30:00,
2013-01-26 15:36:00,26.8,11.1,30.14,WNW,298,4.0,6.0,51,0.00,,,0.00,Wunderground v.1.15,2013-01-26 20:36:00,
2013-01-26 15:42:00,26.6,10.4,30.14,NNW,348,5.0,7.0,50,0.00,,,0.00,Wunderground v.1.15,2013-01-26 20:42:00,
2013-01-26 15:47:00,26.5,10.3,30.14,WNW,292,5.0,8.0,50,0.00,,,0.00,Wunderground v.1.15,2013-01-26 20:47:00,
2013-01-26 15:53:00,26.6,10.4,30.13,WNW,296,3.0,4.0,50,0.00,,,0.00,Wunderground v.1.15,2013-01-26 20:53:00,
2013-01-26 15:58:00,26.6,10.4,30.14,WNW,294,3.0,7.0,50,0.00,,,0.00,Wunderground v.1.15,2013-01-26 20:58:00,
2013-01-26 16:04:00,26.6,10.4,30.14,WNW,301,3.0,9.0,50,0.00,,,0.00,Wunderground v.1.15,2013-01-26 21:04:00,
2013-01-26 16:09:00,26.6,10.4,30.13,NW,317,3.0,9.0,50,0.00,,,0.00,Wunderground v.1.15,2013-01-26 21:09:00,
2013-01-26 16:15:00,26.8,10.6,30.14,WNW,285,3.0,8.0,50,0.00,,,0.00,Wunderground v.1.15,2013-01-26 21:15:00,
2013-01-26 16:21:00,26.6,10.0,30.14,North,360,5.0,7.0,49,0.00,,,0.00,Wunderground v.1.15,2013-01-26 21:21:00,
2013-01-26 16:27:00,26.4,9.8,30.14,West,265,5.0,11.0,49,0.00,,,0.00,Wunderground v.1.15,2013-01-26 21:27:00,
2013-01-26 16:34:00,26.0,9.0,30.15,NNE,17,5.0,5.0,48,0.00,,,0.00,Wunderground v.1.15,2013-01-26 21:34:00,
2013-01-26 16:39:00,26.0,9.0,30.15,WNW,296,5.0,5.0,48,0.00,,,0.00,Wunderground v.1.15,2013-01-26 21:39:00,
2013-01-26 16:45:00,25.9,9.8,30.15,NW,316,4.0,7.0,50,0.00,,,0.00,Wunderground v.1.15,2013-01-26 21:45:00,
2013-01-26 16:50:00,25.8,10.1,30.16,NW,324,4.0,4.0,51,0.00,,,0.00,Wunderground v.1.15,2013-01-26 21:50:00,
2013-01-26 16:56:00,25.6,10.0,30.16,NNE,26,3.0,6.0,51,0.00,,,0.00,Wunderground v.1.15,2013-01-26 21:56:00,
2013-01-26 17:02:00,25.5,9.4,30.17,WNW,301,4.0,7.0,50,0.00,,,0.00,Wunderground v.1.15,2013-01-26 22:02:00,
2013-01-26 17:07:00,25.3,10.1,30.17,NW,309,4.0,7.0,52,0.00,,,0.00,Wunderground v.1.15,2013-01-26 22:07:00,
2013-01-26 17:13:00,25.1,9.5,30.17,WNW,293,3.0,6.0,51,0.00,,,0.00,Wunderground v.1.15,2013-01-26 22:13:00,
2013-01-26 17:19:00,25.0,9.4,30.18,NW,320,3.0,6.0,51,0.00,,,0.00,Wunderground v.1.15,2013-01-26 22:19:00,
2013-01-26 17:24:00,24.8,8.8,30.18,NW,319,5.0,13.0,50,0.00,,,0.00,Wunderground v.1.15,2013-01-26 22:24:00,
2013-01-26 17:30:00,24.4,8.4,30.19,West,275,7.0,7.0,50,0.00,,,0.00,Wunderground v.1.15,2013-01-26 22:30:00,
2013-01-26 17:35:00,24.2,8.2,30.19,West,279,6.0,9.0,50,0.00,,,0.00,Wunderground v.1.15,2013-01-26 22:35:00,
2013-01-26 17:41:00,23.8,7.8,30.20,WNW,288,7.0,7.0,50,0.00,,,0.00,Wunderground v.1.15,2013-01-26 22:41:00,
2013-01-26 17:46:00,23.5,8.0,30.20,WNW,298,7.0,11.0,51,0.00,,,0.00,Wunderground v.1.15,2013-01-26 22:46:00,
2013-01-26 17:52:00,23.3,7.8,30.20,WNW,300,7.0,7.0,51,0.00,,,0.00,Wunderground v.1.15,2013-01-26 22:52:00,
2013-01-26 17:57:00,23.1,7.6,30.20,WNW,285,7.0,10.0,51,0.00,,,0.00,Wunderground v.1.15,2013-01-26 22:57:00,
2013-01-26 18:03:00,22.8,7.4,30.20,WNW,284,8.0,10.0,51,0.00,,,0.00,Wunderground v.1.15,2013-01-26 23:03:00,
2013-01-26 18:09:00,22.7,7.3,30.21,West,275,7.0,10.0,51,0.00,,,0.00,Wunderground v.1.15,2013-01-26 23:09:00,
2013-01-26 18:14:00,22.6,7.6,30.21,WNW,300,5.0,7.0,52,0.00,,,0.00,Wunderground v.1.15,2013-01-26 23:14:00,
2013-01-26 18:19:00,22.6,7.2,30.22,West,260,4.0,7.0,51,0.00,,,0.00,Wunderground v.1.15,2013-01-26 23:19:00,
2013-01-26 18:24:00,22.5,7.5,30.22,SW,227,3.0,5.0,52,0.00,,,0.00,Wunderground v.1.15,2013-01-26 23:24:00,
2013-01-26 18:30:00,22.5,7.5,30.23,WNW,284,2.0,3.0,52,0.00,,,0.00,Wunderground v.1.15,2013-01-26 23:30:00,
2013-01-26 18:36:00,22.4,7.4,30.23,WNW,287,4.0,13.0,52,0.00,,,0.00,Wunderground v.1.15,2013-01-26 23:36:00,
2013-01-26 18:41:00,22.3,7.3,30.22,West,268,5.0,6.0,52,0.00,,,0.00,Wunderground v.1.15,2013-01-26 23:41:00,
2013-01-26 18:47:00,22.2,7.6,30.22,WNW,294,4.0,6.0,53,0.00,,,0.00,Wunderground v.1.15,2013-01-26 23:47:00,
2013-01-26 18:52:00,22.1,7.6,30.22,WNW,298,4.0,6.0,53,0.00,,,0.00,Wunderground v.1.15,2013-01-26 23:52:00,
2013-01-26 18:58:00,21.9,7.4,30.23,NW,310,6.0,11.0,53,0.00,,,0.00,Wunderground v.1.15,2013-01-26 23:58:00,
2013-01-26 19:03:00,21.9,7.8,30.23,NW,308,6.0,7.0,54,0.00,,,0.00,Wunderground v.1.15,2013-01-27 00:03:00,
2013-01-26 19:09:00,21.7,7.6,30.23,WNW,290,5.0,7.0,54,0.00,,,0.00,Wunderground v.1.15,2013-01-27 00:09:00,
2013-01-26 19:14:00,21.7,7.6,30.23,WNW,298,4.0,10.0,54,0.00,,,0.00,Wunderground v.1.15,2013-01-27 00:14:00,
2013-01-26 19:19:00,21.6,7.5,30.24,WNW,297,5.0,10.0,54,0.00,,,0.00,Wunderground v.1.15,2013-01-27 00:19:00,
2013-01-26 19:25:00,21.5,7.8,30.24,WNW,284,4.0,6.0,55,0.00,,,0.00,Wunderground v.1.15,2013-01-27 00:25:00,
2013-01-26 19:31:00,21.4,7.7,30.24,North,11,4.0,6.0,55,0.00,,,0.00,Wunderground v.1.15,2013-01-27 00:31:00,
2013-01-26 19:37:00,21.3,7.6,30.24,NW,319,4.0,8.0,55,0.00,,,0.00,Wunderground v.1.15,2013-01-27 00:37:00,
2013-01-26 19:42:00,21.2,7.5,30.25,West,280,5.0,6.0,55,0.00,,,0.00,Wunderground v.1.15,2013-01-27 00:42:00,
2013-01-26 19:48:00,21.1,7.4,30.25,WNW,288,4.0,6.0,55,0.00,,,0.00,Wunderground v.1.15,2013-01-27 00:48:00,
2013-01-26 19:54:00,21.0,7.3,30.25,NW,309,4.0,7.0,55,0.00,,,0.00,Wunderground v.1.15,2013-01-27 00:54:00,
2013-01-26 19:59:00,21.0,7.7,30.25,West,279,4.0,7.0,56,0.00,,,0.00,Wunderground v.1.15,2013-01-27 00:59:00,
2013-01-26 20:05:00,20.8,7.6,30.25,WNW,300,3.0,4.0,56,0.00,,,0.00,Wunderground v.1.15,2013-01-27 01:05:00,
2013-01-26 20:10:00,20.7,7.5,30.25,WNW,298,3.0,7.0,56,0.00,,,0.00,Wunderground v.1.15,2013-01-27 01:10:00,
2013-01-26 20:16:00,20.6,7.4,30.25,WNW,296,3.0,7.0,56,0.00,,,0.00,Wunderground v.1.15,2013-01-27 01:16:00,
2013-01-26 20:22:00,20.5,7.7,30.26,NW,309,4.0,4.0,57,0.00,,,0.00,Wunderground v.1.15,2013-01-27 01:22:00,
2013-01-26 20:27:00,20.5,7.7,30.26,WNW,300,4.0,6.0,57,0.00,,,0.00,Wunderground v.1.15,2013-01-27 01:27:00,
2013-01-26 20:33:00,20.3,7.5,30.26,WNW,302,4.0,4.0,57,0.00,,,0.00,Wunderground v.1.15,2013-01-27 01:33:00,
2013-01-26 20:39:00,20.2,7.4,30.27,West,267,4.0,6.0,57,0.00,,,0.00,Wunderground v.1.15,2013-01-27 01:39:00,
2013-01-26 20:45:00,20.0,7.2,30.27,West,280,4.0,8.0,57,0.00,,,0.00,Wunderground v.1.15,2013-01-27 01:45:00,
2013-01-26 20:51:00,19.9,7.5,30.27,West,277,2.0,3.0,58,0.00,,,0.00,Wunderground v.1.15,2013-01-27 01:51:00,
2013-01-26 20:57:00,19.9,7.1,30.28,WNW,288,3.0,5.0,57,0.00,,,0.00,Wunderground v.1.15,2013-01-27 01:57:00,
2013-01-26 21:02:00,19.8,7.4,30.28,WNW,298,3.0,3.0,58,0.00,,,0.00,Wunderground v.1.15,2013-01-27 02:02:00,
2013-01-26 21:08:00,19.7,7.3,30.28,WNW,290,1.0,4.0,58,0.00,,,0.00,Wunderground v.1.15,2013-01-27 02:08:00,
2013-01-26 21:14:00,19.6,7.2,30.28,WNW,292,3.0,3.0,58,0.00,,,0.00,Wunderground v.1.15,2013-01-27 02:14:00,
2013-01-26 21:20:00,19.5,7.1,30.29,WNW,302,4.0,6.0,58,0.00,,,0.00,Wunderground v.1.15,2013-01-27 02:20:00,
2013-01-26 21:26:00,19.5,7.1,30.29,WNW,282,4.0,9.0,58,0.00,,,0.00,Wunderground v.1.15,2013-01-27 02:26:00,
2013-01-26 21:31:00,19.4,7.0,30.29,WNW,298,3.0,4.0,58,0.00,,,0.00,Wunderground v.1.15,2013-01-27 02:31:00,
2013-01-26 21:37:00,19.3,6.9,30.30,WNW,294,3.0,5.0,58,0.00,,,0.00,Wunderground v.1.15,2013-01-27 02:37:00,
2013-01-26 21:43:00,19.3,7.3,30.30,West,277,2.0,4.0,59,0.00,,,0.00,Wunderground v.1.15,2013-01-27 02:43:00,
2013-01-26 21:49:00,19.2,7.2,30.30,NW,308,2.0,4.0,59,0.00,,,0.00,Wunderground v.1.15,2013-01-27 02:49:00,
2013-01-26 21:54:00,19.1,7.5,30.30,WNW,290,2.0,5.0,60,0.00,,,0.00,Wunderground v.1.15,2013-01-27 02:54:00,
2013-01-26 22:00:00,18.9,7.3,30.31,WNW,294,3.0,4.0,60,0.00,,,0.00,Wunderground v.1.15,2013-01-27 03:00:00,
2013-01-26 22:06:00,18.8,7.2,30.31,West,270,2.0,5.0,60,0.00,,,0.00,Wunderground v.1.15,2013-01-27 03:06:00,
2013-01-26 22:12:00,18.8,7.2,30.31,West,259,2.0,5.0,60,0.00,,,0.00,Wunderground v.1.15,2013-01-27 03:12:00,
2013-01-26 22:19:00,18.7,7.5,30.31,WNW,285,3.0,5.0,61,0.00,,,0.00,Wunderground v.1.15,2013-01-27 03:19:00,
2013-01-26 22:25:00,18.6,7.4,30.32,West,281,3.0,4.0,61,0.00,,,0.00,Wunderground v.1.15,2013-01-27 03:25:00,
2013-01-26 22:30:00,18.6,7.4,30.32,WNW,284,3.0,5.0,61,0.00,,,0.00,Wunderground v.1.15,2013-01-27 03:30:00,
2013-01-26 22:36:00,18.6,7.7,30.32,WNW,289,4.0,5.0,62,0.00,,,0.00,Wunderground v.1.15,2013-01-27 03:36:00,
2013-01-26 22:41:00,18.5,7.6,30.32,WNW,286,3.0,3.0,62,0.00,,,0.00,Wunderground v.1.15,2013-01-27 03:41:00,
2013-01-26 22:47:00,18.5,7.6,30.32,WNW,288,3.0,3.0,62,0.00,,,0.00,Wunderground v.1.15,2013-01-27 03:47:00,
2013-01-26 22:53:00,18.3,7.4,30.33,WNW,302,3.0,5.0,62,0.00,,,0.00,Wunderground v.1.15,2013-01-27 03:53:00,
2013-01-26 22:59:00,18.2,7.7,30.33,West,280,4.0,5.0,63,0.00,,,0.00,Wunderground v.1.15,2013-01-27 03:59:00,
2013-01-26 23:04:00,18.2,7.7,30.32,WNW,292,4.0,4.0,63,0.00,,,0.00,Wunderground v.1.15,2013-01-27 04:04:00,
2013-01-26 23:09:00,18.1,7.6,30.33,WNW,286,3.0,5.0,63,0.00,,,0.00,Wunderground v.1.15,2013-01-27 04:09:00,
2013-01-26 23:15:00,18.1,7.6,30.32,West,277,4.0,8.0,63,0.00,,,0.00,Wunderground v.1.15,2013-01-27 04:15:00,
2013-01-26 23:21:00,18.1,8.0,30.33,WNW,296,4.0,7.0,64,0.00,,,0.00,Wunderground v.1.15,2013-01-27 04:21:00,
2013-01-26 23:27:00,18.1,8.0,30.33,NW,317,3.0,7.0,64,0.00,,,0.00,Wunderground v.1.15,2013-01-27 04:27:00,
2013-01-26 23:33:00,18.0,7.9,30.33,WNW,296,3.0,3.0,64,0.00,,,0.00,Wunderground v.1.15,2013-01-27 04:33:00,
2013-01-26 23:39:00,18.0,7.9,30.33,West,277,3.0,5.0,64,0.00,,,0.00,Wunderground v.1.15,2013-01-27 04:39:00,
2013-01-26 23:44:00,17.9,7.8,30.33,NW,311,3.0,7.0,64,0.00,,,0.00,Wunderground v.1.15,2013-01-27 04:44:00,
2013-01-26 23:50:00,17.9,8.1,30.33,WNW,286,3.0,3.0,65,0.00,,,0.00,Wunderground v.1.15,2013-01-27 04:50:00,
2013-01-26 23:56:00,17.9,8.1,30.33,West,281,4.0,7.0,65,0.00,,,0.00,Wunderground v.1.15,2013-01-27 04:56:00,